Time;durP1;ratioP1;P1;durP2;ratioP2;P2;SDS_P1;SDS_P2;PMS_P1;PMS_P2;Temp;Humidity;BMP_temperature;BMP_pressure;BME280_temperature;BME280_humidity;BME280_pressure;Samples;Min_cycle;Max_cycle;Signal;HPM_P1;HPM_P2
2022/03/14 00:02:24;;;;;;;12.20;9.90;;;9.90;23.30;;;;;;6272511;22;20377;-79
2022/03/14 00:04:50;;;;;;;16.83;12.10;;;9.90;23.10;;;;;;6271117;22;20233;-79
2022/03/14 00:07:16;;;;;;;12.97;11.17;;;9.90;23.20;;;;;;6272509;22;20151;-79
2022/03/14 00:09:41;;;;;;;12.83;11.47;;;9.80;22.20;;;;;;6274263;22;20370;-79
2022/03/14 00:12:08;;;;;;;12.63;10.40;;;9.80;23.10;;;;;;6272102;22;20159;-79
2022/03/14 00:14:34;;;;;;;11.60;10.40;;;9.90;22.40;;;;;;6271654;22;20155;-79
2022/03/14 00:17:04;;;;;;;12.57;9.80;;;9.90;23.60;;;;;;6272269;22;20440;-79
2022/03/14 00:19:32;;;;;;;10.97;9.80;;;9.90;22.80;;;;;;6272199;22;20541;-79
2022/03/14 00:22:00;;;;;;;11.50;10.33;;;9.90;22.80;;;;;;6271509;22;20390;-79
2022/03/14 00:24:25;;;;;;;12.53;10.93;;;9.90;22.60;;;;;;6273089;22;20431;-79
2022/03/14 00:26:54;;;;;;;11.40;10.30;;;10.00;21.90;;;;;;6271204;22;20381;-79
2022/03/14 00:29:21;;;;;;;16.17;9.97;;;10.00;21.90;;;;;;6272733;22;20238;-79
2022/03/14 00:31:47;;;;;;;15.40;14.00;;;10.10;21.20;;;;;;6271743;22;20744;-78
2022/03/14 00:34:15;;;;;;;12.17;10.50;;;10.10;20.40;;;;;;6272632;22;20837;-77
2022/03/14 00:36:43;;;;;;;12.17;9.27;;;10.10;19.80;;;;;;6271900;22;20392;-77
2022/03/14 00:39:09;;;;;;;10.63;9.60;;;10.20;19.20;;;;;;6273733;22;20428;-77
2022/03/14 00:41:35;;;;;;;13.23;10.00;;;10.20;18.90;;;;;;6271281;22;20754;-77
2022/03/14 00:44:03;;;;;;;11.10;9.70;;;10.20;18.80;;;;;;6271155;22;20381;-77
2022/03/14 00:46:29;;;;;;;9.67;8.70;;;10.20;18.60;;;;;;6271889;22;20151;-77
2022/03/14 00:48:55;;;;;;;12.70;10.70;;;10.20;19.00;;;;;;6271681;22;20859;-77
2022/03/14 00:51:21;;;;;;;12.17;10.13;;;10.20;18.50;;;;;;6272440;22;20844;-79
2022/03/14 00:53:47;;;;;;;11.20;10.10;;;10.20;19.30;;;;;;6271176;22;20444;-78
2022/03/14 00:56:13;;;;;;;11.13;10.00;;;10.20;19.40;;;;;;6272729;22;20849;-78
2022/03/14 00:58:39;;;;;;;13.77;10.77;;;10.20;20.40;;;;;;6270956;22;20151;-79
2022/03/14 01:01:05;;;;;;;10.90;9.67;;;10.30;19.30;;;;;;6270839;22;20417;-79
2022/03/14 01:03:31;;;;;;;11.47;10.27;;;10.30;20.50;;;;;;6270744;22;20385;-78
2022/03/14 01:05:57;;;;;;;11.03;9.33;;;10.30;20.60;;;;;;6270946;22;20726;-79
2022/03/14 01:08:23;;;;;;;13.93;10.63;;;10.30;20.30;;;;;;6270826;22;20423;-79
2022/03/14 01:10:48;;;;;;;12.00;10.13;;;10.30;19.80;;;;;;6270640;22;20169;-79
2022/03/14 01:13:14;;;;;;;13.77;12.40;;;10.30;19.50;;;;;;6271009;22;20155;-79
2022/03/14 01:15:40;;;;;;;13.40;10.50;;;10.40;20.00;;;;;;6269964;22;20154;-79
2022/03/14 01:18:06;;;;;;;13.97;12.67;;;10.40;20.20;;;;;;6272091;22;20398;-78
2022/03/14 01:20:33;;;;;;;18.83;11.13;;;10.40;21.90;;;;;;6270371;22;20788;-78
2022/03/14 01:22:59;;;;;;;14.23;12.23;;;10.60;24.00;;;;;;6269412;22;20385;-78
2022/03/14 01:25:25;;;;;;;16.93;12.70;;;10.60;26.20;;;;;;6271355;22;20859;-78
2022/03/14 01:27:55;;;;;;;21.80;13.80;;;10.70;28.50;;;;;;6272596;22;20186;-78
2022/03/14 01:30:21;;;;;;;15.67;13.50;;;10.70;29.30;;;;;;6271718;22;20749;-78
2022/03/14 01:32:47;;;;;;;15.07;13.37;;;10.70;30.10;;;;;;6270851;22;20870;-78
2022/03/14 01:35:13;;;;;;;15.70;14.17;;;10.70;32.10;;;;;;6273369;22;20392;-79
2022/03/14 01:37:39;;;;;;;20.20;18.20;;;10.80;32.70;;;;;;6271818;22;20381;-78
2022/03/14 01:40:09;;;;;;;17.60;13.00;;;10.70;34.00;;;;;;6271764;22;20420;-78
2022/03/14 01:42:34;;;;;;;15.77;14.10;;;10.70;34.80;;;;;;6272154;22;20384;-78
2022/03/14 01:45:01;;;;;;;19.90;15.13;;;10.60;35.00;;;;;;6271905;22;20401;-78
2022/03/14 01:47:28;;;;;;;22.33;20.17;;;10.70;35.30;;;;;;6271249;22;20157;-78
2022/03/14 01:49:53;;;;;;;15.03;13.37;;;10.70;35.70;;;;;;6271933;22;20389;-78
2022/03/14 01:52:20;;;;;;;16.10;13.80;;;10.70;36.70;;;;;;6271679;22;20745;-78
2022/03/14 01:54:47;;;;;;;16.27;12.90;;;10.60;39.00;;;;;;6270920;22;20240;-78
2022/03/14 01:57:13;;;;;;;15.73;14.07;;;10.60;39.30;;;;;;6271564;22;20405;-78
2022/03/14 01:59:40;;;;;;;15.03;13.50;;;10.60;40.20;;;;;;6270494;22;20488;-78
2022/03/14 02:02:06;;;;;;;20.17;18.37;;;10.50;42.00;;;;;;6271169;22;20378;-78
2022/03/14 02:04:33;;;;;;;16.10;13.40;;;10.60;42.20;;;;;;6270951;22;20400;-78
2022/03/14 02:06:58;;;;;;;13.93;12.53;;;10.50;42.90;;;;;;6270254;22;20500;-78
2022/03/14 02:09:24;;;;;;;14.57;13.07;;;10.50;43.60;;;;;;6270191;22;20389;-78
2022/03/14 02:12:04;;;;;;;20.67;18.87;;;10.50;44.70;;;;;;6270019;22;20161;-78
2022/03/14 02:14:30;;;;;;;21.10;19.03;;;10.50;44.90;;;;;;6272215;22;20716;-79
2022/03/14 02:16:56;;;;;;;20.63;18.83;;;10.50;45.70;;;;;;6270261;22;20404;-78
2022/03/14 02:19:22;;;;;;;15.13;13.57;;;10.50;47.00;;;;;;6272556;22;20409;-78
2022/03/14 02:21:47;;;;;;;14.93;13.33;;;10.50;46.90;;;;;;6270590;22;20253;-78
2022/03/14 02:24:14;;;;;;;19.97;18.00;;;10.50;46.50;;;;;;6273253;22;20532;-77
2022/03/14 02:26:40;;;;;;;18.20;14.87;;;10.40;47.70;;;;;;6270431;22;20158;-77
2022/03/14 02:29:10;;;;;;;14.17;12.67;;;10.40;47.70;;;;;;6271900;22;20365;-77
2022/03/14 02:31:37;;;;;;;15.90;14.30;;;10.40;47.30;;;;;;6270076;22;20377;-77
2022/03/14 02:34:07;;;;;;;16.07;14.57;;;10.40;47.00;;;;;;6270525;22;20382;-77
2022/03/14 02:36:34;;;;;;;20.77;18.88;;;10.40;47.10;;;;;;6268981;22;20738;-77
2022/03/14 02:38:59;;;;;;;18.23;16.50;;;10.30;47.40;;;;;;6270854;22;20155;-79
2022/03/14 02:41:26;;;;;;;15.83;14.33;;;10.40;47.10;;;;;;6271473;22;20695;-77
2022/03/14 02:43:51;;;;;;;15.83;14.20;;;10.40;46.90;;;;;;6270225;22;20150;-77
2022/03/14 02:46:19;;;;;;;16.17;14.50;;;10.40;46.50;;;;;;6272302;22;20370;-77
2022/03/14 02:48:45;;;;;;;15.83;13.63;;;10.30;46.50;;;;;;6271827;22;20376;-77
2022/03/14 02:51:13;;;;;;;17.80;15.07;;;10.30;46.00;;;;;;6270384;22;20464;-77
2022/03/14 02:53:39;;;;;;;17.27;14.10;;;10.30;46.80;;;;;;6270127;22;20161;-77
2022/03/14 02:56:05;;;;;;;23.03;21.10;;;10.20;48.80;;;;;;6270486;22;20691;-77
2022/03/14 02:58:32;;;;;;;17.93;15.03;;;10.20;49.40;;;;;;6271088;22;20385;-77
2022/03/14 03:01:01;;;;;;;22.87;20.93;;;10.20;50.50;;;;;;6272003;22;20166;-77
2022/03/14 03:03:27;;;;;;;17.67;15.67;;;10.10;53.70;;;;;;6270243;22;20846;-79
2022/03/14 03:05:53;;;;;;;17.30;14.10;;;10.00;57.40;;;;;;6270532;22;20464;-77
2022/03/14 03:08:22;;;;;;;13.97;12.50;;;9.90;58.90;;;;;;6270039;22;20157;-77
2022/03/14 03:10:48;;;;;;;15.20;13.67;;;9.80;61.80;;;;;;6269003;22;21125;-77
2022/03/14 03:13:15;;;;;;;12.97;11.77;;;9.90;60.70;;;;;;6272227;22;20483;-77
2022/03/14 03:15:41;;;;;;;16.50;15.10;;;9.90;60.70;;;;;;6269525;22;20487;-77
2022/03/14 03:18:08;;;;;;;18.83;17.07;;;9.70;64.00;;;;;;6269457;22;20492;-77
2022/03/14 03:20:34;;;;;;;13.33;11.93;;;9.70;67.00;;;;;;6269658;22;20417;-77
2022/03/14 03:23:02;;;;;;;12.17;11.00;;;9.60;68.70;;;;;;6270423;22;20377;-77
2022/03/14 03:25:28;;;;;;;11.70;10.60;;;9.50;73.20;;;;;;6270254;22;20733;-76
2022/03/14 03:27:53;;;;;;;14.40;11.80;;;9.50;75.30;;;;;;6270105;22;20392;-77
2022/03/14 03:30:19;;;;;;;11.43;10.43;;;9.50;74.90;;;;;;6270576;22;20155;-77
2022/03/14 03:32:45;;;;;;;11.13;10.23;;;9.50;73.70;;;;;;6269149;22;20163;-77
2022/03/14 03:35:11;;;;;;;11.13;10.03;;;9.50;72.40;;;;;;6269645;22;20158;-77
2022/03/14 03:37:36;;;;;;;10.07;9.17;;;9.50;71.80;;;;;;6269713;22;20154;-77
2022/03/14 03:40:03;;;;;;;11.70;10.00;;;9.40;74.80;;;;;;6271242;22;20424;-77
2022/03/14 03:42:29;;;;;;;11.00;10.00;;;9.40;75.50;;;;;;6269883;22;20524;-77
2022/03/14 03:44:55;;;;;;;9.93;9.03;;;9.50;74.30;;;;;;6269696;22;20394;-77
2022/03/14 03:47:20;;;;;;;9.20;8.30;;;9.60;72.90;;;;;;6268968;22;20613;-77
2022/03/14 03:49:46;;;;;;;11.67;10.50;;;9.60;71.40;;;;;;6269616;22;20181;-77
2022/03/14 03:52:12;;;;;;;10.70;9.73;;;9.60;71.00;;;;;;6270142;22;20848;-77
2022/03/14 03:54:38;;;;;;;9.67;8.80;;;9.50;71.80;;;;;;6269507;22;20482;-77
2022/03/14 03:57:06;;;;;;;10.97;9.87;;;9.50;71.70;;;;;;6270553;22;20174;-77
2022/03/14 03:59:34;;;;;;;12.97;11.87;;;9.60;71.10;;;;;;6269616;22;20843;-77
2022/03/14 04:02:02;;;;;;;10.23;9.13;;;9.60;70.70;;;;;;6271650;22;20383;-77
2022/03/14 04:04:40;;;;;;;10.37;9.40;;;9.50;71.10;;;;;;6271679;22;20385;-78
2022/03/14 04:07:09;;;;;;;10.03;9.07;;;9.50;71.70;;;;;;6271078;22;21089;-77
2022/03/14 04:09:35;;;;;;;10.57;9.57;;;9.50;71.90;;;;;;6269547;22;20718;-77
2022/03/14 04:12:01;;;;;;;10.97;9.73;;;9.50;72.40;;;;;;6271067;22;20435;-77
2022/03/14 04:14:27;;;;;;;9.80;8.40;;;9.50;72.10;;;;;;6271652;22;20366;-77
2022/03/14 04:16:54;;;;;;;8.73;8.07;;;9.50;72.50;;;;;;6269528;22;20228;-77
2022/03/14 04:19:20;;;;;;;8.00;7.43;;;9.40;74.50;;;;;;6273426;22;20178;-77
2022/03/14 04:21:48;;;;;;;10.13;9.53;;;9.40;74.10;;;;;;6269286;22;20382;-77
2022/03/14 04:24:14;;;;;;;8.17;7.57;;;9.30;76.40;;;;;;6269820;22;20381;-78
2022/03/14 04:26:40;;;;;;;7.27;6.83;;;9.10;77.80;;;;;;6270884;22;20432;-78
2022/03/14 04:29:06;;;;;;;7.77;7.17;;;9.00;80.50;;;;;;6273006;22;20213;-78
2022/03/14 04:31:31;;;;;;;6.83;6.33;;;9.00;81.60;;;;;;6271916;22;20572;-78
2022/03/14 04:33:57;;;;;;;8.70;8.20;;;9.20;80.60;;;;;;6270574;22;20154;-78
2022/03/14 04:36:23;;;;;;;7.83;7.33;;;9.10;78.00;;;;;;6271640;22;20280;-78
2022/03/14 04:38:49;;;;;;;8.17;7.63;;;9.20;77.00;;;;;;6271003;22;20158;-78
2022/03/14 04:41:15;;;;;;;7.77;7.07;;;9.00;79.20;;;;;;6271830;22;20419;-78
2022/03/14 04:43:41;;;;;;;7.63;7.03;;;9.00;81.10;;;;;;6271420;22;20166;-78
2022/03/14 04:46:07;;;;;;;8.30;7.70;;;9.00;83.10;;;;;;6272537;22;20388;-78
2022/03/14 04:48:33;;;;;;;7.50;6.93;;;9.00;81.10;;;;;;6273378;22;20158;-78
2022/03/14 04:50:59;;;;;;;7.40;6.70;;;9.10;79.50;;;;;;6272786;22;20385;-78
2022/03/14 04:53:25;;;;;;;7.80;7.40;;;9.10;80.40;;;;;;6272268;22;20381;-78
2022/03/14 04:55:51;;;;;;;7.37;6.90;;;9.10;81.30;;;;;;6272541;22;20834;-78
2022/03/14 04:58:17;;;;;;;7.23;6.73;;;9.10;79.40;;;;;;6273284;22;20155;-78
2022/03/14 05:00:43;;;;;;;8.37;7.80;;;9.10;76.30;;;;;;6273770;22;20175;-78
2022/03/14 05:03:10;;;;;;;9.40;8.90;;;9.20;76.40;;;;;;6274859;22;20439;-78
2022/03/14 05:05:36;;;;;;;8.37;7.67;;;9.20;73.90;;;;;;6274493;22;20150;-78
2022/03/14 05:08:02;;;;;;;6.90;6.50;;;9.20;73.70;;;;;;6274828;22;20438;-77
2022/03/14 05:10:28;;;;;;;9.43;8.73;;;9.00;76.30;;;;;;6274966;22;20381;-77
2022/03/14 05:12:54;;;;;;;6.87;6.40;;;9.00;77.80;;;;;;6274731;22;20893;-77
2022/03/14 05:15:20;;;;;;;8.43;7.93;;;8.90;80.00;;;;;;6275095;22;20412;-77
2022/03/14 05:17:46;;;;;;;7.47;6.97;;;8.90;79.30;;;;;;6274939;22;20174;-77
2022/03/14 05:20:12;;;;;;;7.70;7.10;;;8.90;79.20;;;;;;6275126;22;20257;-77
2022/03/14 05:22:45;;;;;;;6.20;5.90;;;8.80;78.40;;;;;;6274595;22;20468;-77
2022/03/14 05:25:11;;;;;;;5.67;5.47;;;8.80;76.50;;;;;;6275147;22;20835;-79
2022/03/14 05:27:39;;;;;;;6.00;5.70;;;8.80;75.00;;;;;;6274739;22;20378;-78
2022/03/14 05:30:08;;;;;;;6.50;6.20;;;8.80;75.10;;;;;;6273784;22;20493;-78
2022/03/14 05:32:37;;;;;;;6.40;6.10;;;8.90;74.00;;;;;;6274675;22;20385;-78
2022/03/14 05:35:03;;;;;;;6.00;5.70;;;8.90;74.10;;;;;;6274893;22;20388;-78
2022/03/14 05:37:29;;;;;;;5.53;5.33;;;8.90;72.20;;;;;;6274529;22;20374;-78
2022/03/14 05:39:56;;;;;;;6.03;5.70;;;8.90;73.60;;;;;;6274980;22;20447;-78
2022/03/14 05:42:23;;;;;;;5.60;5.37;;;8.90;73.10;;;;;;6274815;22;20396;-78
2022/03/14 05:44:49;;;;;;;5.17;4.87;;;8.80;72.10;;;;;;6274623;22;21307;-78
2022/03/14 05:47:14;;;;;;;5.57;5.37;;;8.70;75.80;;;;;;6277034;22;20388;-79
2022/03/14 05:49:40;;;;;;;5.00;4.80;;;8.70;75.70;;;;;;6276026;22;20158;-78
2022/03/14 05:52:06;;;;;;;5.23;5.13;;;8.70;73.60;;;;;;6274325;22;20487;-78
2022/03/14 05:54:34;;;;;;;5.43;5.13;;;8.70;71.70;;;;;;6273868;22;20159;-78
2022/03/14 05:57:00;;;;;;;5.53;5.33;;;8.70;71.70;;;;;;6274135;22;20465;-78
2022/03/14 05:59:26;;;;;;;5.80;5.60;;;8.70;71.80;;;;;;6275000;22;20467;-79
2022/03/14 06:01:55;;;;;;;5.40;5.20;;;8.70;72.90;;;;;;6275684;22;20445;-76
2022/03/14 06:04:21;;;;;;;4.93;4.73;;;8.70;71.00;;;;;;6276424;22;20366;-77
2022/03/14 06:06:47;;;;;;;5.60;5.50;;;8.70;71.90;;;;;;6274240;22;20468;-77
2022/03/14 06:09:16;;;;;;;5.53;5.33;;;8.80;70.50;;;;;;6274946;22;20385;-79
2022/03/14 06:11:42;;;;;;;4.80;4.70;;;8.80;70.30;;;;;;6274232;22;20381;-77
2022/03/14 06:14:09;;;;;;;5.60;5.40;;;8.70;71.90;;;;;;6274611;22;20381;-76
2022/03/14 06:16:36;;;;;;;5.47;5.27;;;8.60;71.70;;;;;;6273897;22;20154;-77
2022/03/14 06:19:02;;;;;;;5.00;4.80;;;8.70;72.30;;;;;;6274358;22;20390;-77
2022/03/14 06:21:27;;;;;;;5.87;5.30;;;8.70;71.40;;;;;;6274500;22;20380;-77
2022/03/14 06:24:20;;;;;;;5.43;5.20;;;8.60;69.90;;;;;;6274769;22;20170;-76
2022/03/14 06:27:31;;;;;;;5.87;5.67;;;8.70;68.30;;;;;;6274167;22;20147;-77
2022/03/14 06:29:57;;;;;;;5.83;5.63;;;8.60;70.00;;;;;;6236060;22;20381;-77
2022/03/14 06:32:23;;;;;;;6.83;6.53;;;8.50;68.20;;;;;;6274472;22;20388;-77
2022/03/14 06:34:49;;;;;;;7.00;6.50;;;8.60;68.20;;;;;;6276139;22;20373;-83
2022/03/14 06:37:16;;;;;;;6.87;6.23;;;8.50;67.70;;;;;;6276900;22;20381;-83
2022/03/14 06:39:45;;;;;;;6.30;6.00;;;8.50;68.30;;;;;;6274684;22;20421;-83
2022/03/14 06:42:18;;;;;;;5.63;5.30;;;8.50;68.60;;;;;;6275297;22;20377;-83
2022/03/14 06:44:44;;;;;;;8.07;6.53;;;8.50;68.80;;;;;;6274746;22;20465;-78
2022/03/14 06:47:12;;;;;;;5.17;5.07;;;8.50;67.60;;;;;;6273798;22;20667;-77
2022/03/14 06:49:44;;;;;;;5.77;5.57;;;8.50;66.80;;;;;;6272936;22;20419;-77
2022/03/14 06:52:10;;;;;;;6.17;5.77;;;8.50;63.50;;;;;;6273516;22;20439;-77
2022/03/14 06:54:36;;;;;;;6.63;6.13;;;8.50;62.40;;;;;;6272684;22;20386;-77
2022/03/14 06:57:02;;;;;;;6.57;6.03;;;8.50;62.80;;;;;;6273498;22;20385;-77
2022/03/14 06:59:28;;;;;;;5.63;5.43;;;8.50;63.80;;;;;;6273125;22;20202;-77
2022/03/14 07:01:54;;;;;;;5.77;5.57;;;8.50;64.50;;;;;;6273540;22;20843;-77
2022/03/14 07:04:21;;;;;;;5.93;5.63;;;8.50;65.20;;;;;;6273481;22;20572;-77
2022/03/14 07:06:46;;;;;;;6.50;6.30;;;8.50;63.40;;;;;;6272454;22;20147;-77
2022/03/14 07:09:12;;;;;;;6.50;6.20;;;8.50;65.70;;;;;;6273449;22;20374;-77
2022/03/14 07:11:38;;;;;;;5.90;5.70;;;8.50;67.20;;;;;;6272979;22;20169;-77
2022/03/14 07:14:03;;;;;;;6.60;6.30;;;8.50;64.40;;;;;;6272799;22;20205;-77
2022/03/14 07:16:29;;;;;;;7.67;6.80;;;8.50;63.20;;;;;;6272199;22;20203;-77
2022/03/14 07:18:55;;;;;;;6.20;6.00;;;8.50;62.90;;;;;;6272392;22;20242;-77
2022/03/14 07:21:22;;;;;;;7.43;6.97;;;8.50;63.00;;;;;;6271882;22;20599;-77
2022/03/14 07:23:48;;;;;;;7.00;6.37;;;8.60;62.70;;;;;;6271539;22;20469;-77
2022/03/14 07:26:14;;;;;;;7.17;6.87;;;8.60;61.00;;;;;;6272155;22;20754;-77
2022/03/14 07:28:40;;;;;;;6.90;6.40;;;8.60;61.40;;;;;;6272791;22;20151;-77
2022/03/14 07:31:06;;;;;;;5.90;5.70;;;8.60;63.80;;;;;;6273334;22;20397;-77
2022/03/14 07:33:32;;;;;;;6.93;6.57;;;8.60;62.00;;;;;;6272484;22;20313;-77
2022/03/14 07:35:58;;;;;;;6.17;5.67;;;8.60;63.50;;;;;;6272657;22;20747;-77
2022/03/14 07:38:24;;;;;;;5.47;5.37;;;8.60;63.20;;;;;;6273170;22;20381;-77
2022/03/14 07:40:49;;;;;;;6.13;5.80;;;8.60;61.30;;;;;;6272603;22;20593;-77
2022/03/14 07:43:16;;;;;;;6.23;6.03;;;8.70;62.10;;;;;;6272285;22;20150;-77
2022/03/14 07:45:41;;;;;;;8.37;7.87;;;8.70;60.90;;;;;;6272752;22;20154;-78
2022/03/14 07:48:08;;;;;;;6.00;5.80;;;8.80;60.00;;;;;;6273204;22;20377;-78
2022/03/14 07:50:34;;;;;;;6.80;6.30;;;8.80;60.90;;;;;;6272371;22;20158;-78
2022/03/14 07:52:59;;;;;;;6.67;6.47;;;8.80;58.10;;;;;;6272936;22;20389;-78
2022/03/14 07:55:25;;;;;;;7.00;6.70;;;8.90;54.20;;;;;;6272957;22;20788;-78
2022/03/14 07:57:51;;;;;;;7.07;6.87;;;9.10;56.40;;;;;;6273740;22;20174;-79
2022/03/14 08:00:21;;;;;;;17.40;6.80;;;9.10;53.50;;;;;;6273072;22;20170;-79
2022/03/14 08:02:48;;;;;;;6.93;6.53;;;9.20;54.50;;;;;;6272391;22;20374;-78
2022/03/14 08:05:16;;;;;;;6.87;6.63;;;9.20;56.90;;;;;;6272785;22;20503;-79
2022/03/14 08:07:46;;;;;;;7.50;7.10;;;9.30;51.80;;;;;;6272438;22;20381;-77
2022/03/14 08:10:14;;;;;;;6.00;5.80;;;9.40;54.00;;;;;;6272957;22;20378;-77
2022/03/14 08:12:50;;;;;;;6.20;5.97;;;9.40;53.50;;;;;;6272171;22;20379;-77
2022/03/14 08:15:26;;;;;;;7.97;7.23;;;9.50;53.20;;;;;;6272709;22;20381;-77
2022/03/14 08:17:54;;;;;;;6.53;6.00;;;9.60;52.00;;;;;;6272312;22;20518;-77
2022/03/14 08:20:20;;;;;;;6.63;6.27;;;9.60;52.60;;;;;;6272313;22;20421;-78
2022/03/14 08:22:46;;;;;;;6.60;6.40;;;9.60;52.00;;;;;;6272157;22;20834;-78
2022/03/14 08:25:14;;;;;;;6.20;6.00;;;9.70;52.10;;;;;;6272324;22;20482;-77
2022/03/14 08:27:39;;;;;;;6.30;6.10;;;9.70;54.20;;;;;;6271750;22;20381;-77
2022/03/14 08:30:06;;;;;;;6.77;6.47;;;9.90;52.20;;;;;;6272477;22;20852;-77
2022/03/14 08:32:34;;;;;;;6.07;5.87;;;9.90;48.70;;;;;;6272614;22;20174;-77
2022/03/14 08:35:07;;;;;;;8.50;7.27;;;9.80;47.20;;;;;;6272078;22;20455;-77
2022/03/14 08:37:36;;;;;;;6.03;5.83;;;9.80;47.40;;;;;;6272120;22;20423;-77
2022/03/14 08:40:03;;;;;;;6.30;5.97;;;9.80;45.10;;;;;;6271990;22;20496;-77
2022/03/14 08:42:29;;;;;;;7.87;7.07;;;9.90;46.40;;;;;;6271818;22;20404;-77
2022/03/14 08:44:55;;;;;;;5.70;5.30;;;9.90;44.80;;;;;;6271576;22;20742;-79
2022/03/14 08:47:21;;;;;;;5.80;5.60;;;10.00;43.50;;;;;;6272882;22;20146;-77
2022/03/14 08:49:46;;;;;;;6.20;5.80;;;10.00;42.80;;;;;;6273869;22;20439;-77
2022/03/14 08:52:12;;;;;;;5.33;5.23;;;10.10;43.50;;;;;;6272617;22;20588;-77
2022/03/14 08:54:38;;;;;;;5.30;5.10;;;10.10;41.60;;;;;;6273375;22;20147;-77
2022/03/14 08:57:04;;;;;;;5.90;5.53;;;10.10;43.50;;;;;;6272308;22;20161;-77
2022/03/14 08:59:30;;;;;;;5.87;5.47;;;10.10;43.80;;;;;;6272565;22;20185;-77
2022/03/14 09:01:56;;;;;;;8.03;6.00;;;10.20;41.30;;;;;;6272409;22;20385;-78
2022/03/14 09:04:29;;;;;;;6.20;5.60;;;10.20;41.80;;;;;;6271922;22;20155;-79
2022/03/14 09:06:55;;;;;;;5.43;5.03;;;10.20;41.80;;;;;;6273047;22;20196;-78
2022/03/14 09:09:21;;;;;;;5.23;5.03;;;10.20;41.10;;;;;;6271937;22;20443;-78
2022/03/14 09:11:46;;;;;;;6.70;6.17;;;10.20;40.60;;;;;;6272210;22;20830;-78
2022/03/14 09:14:12;;;;;;;7.33;5.50;;;10.20;41.80;;;;;;6271589;22;20694;-78
2022/03/14 09:16:39;;;;;;;6.47;5.93;;;10.10;39.30;;;;;;6271516;22;20161;-78
2022/03/14 09:19:04;;;;;;;5.67;5.37;;;10.00;40.70;;;;;;6271332;22;20147;-78
2022/03/14 09:21:32;;;;;;;5.77;5.27;;;10.00;41.60;;;;;;6271533;22;20444;-77
2022/03/14 09:23:58;;;;;;;5.50;5.30;;;10.10;41.00;;;;;;6271701;22;20276;-77
2022/03/14 09:26:24;;;;;;;5.60;5.40;;;10.20;39.60;;;;;;6272038;22;20805;-78
2022/03/14 09:28:50;;;;;;;6.20;5.80;;;10.20;39.20;;;;;;6273579;22;20468;-77
2022/03/14 09:31:16;;;;;;;5.50;5.23;;;10.10;39.50;;;;;;6272599;22;20209;-77
2022/03/14 09:33:42;;;;;;;5.53;5.20;;;10.10;40.30;;;;;;6271440;22;20760;-77
2022/03/14 09:36:08;;;;;;;6.13;5.77;;;10.10;39.10;;;;;;6272076;22;20381;-77
2022/03/14 09:38:33;;;;;;;4.83;4.73;;;10.10;38.90;;;;;;6272380;22;20427;-77
2022/03/14 09:41:04;;;;;;;5.60;5.33;;;10.20;38.40;;;;;;6272224;22;20500;-78
2022/03/14 09:43:38;;;;;;;5.43;5.03;;;10.30;39.90;;;;;;6272270;22;20155;-77
2022/03/14 09:46:06;;;;;;;6.03;5.77;;;10.40;39.80;;;;;;6273603;22;20401;-77
2022/03/14 09:48:36;;;;;;;6.60;6.07;;;10.50;39.60;;;;;;6273680;22;20374;-77
2022/03/14 09:51:06;;;;;;;6.60;5.97;;;10.60;39.00;;;;;;6273890;22;20672;-78
2022/03/14 09:53:34;;;;;;;6.60;6.07;;;10.60;36.10;;;;;;6273464;22;20416;-78
2022/03/14 09:56:00;;;;;;;8.10;7.50;;;10.60;35.40;;;;;;6273927;22;20381;-78
2022/03/14 09:58:26;;;;;;;5.43;5.23;;;10.70;36.50;;;;;;6273556;22;20884;-78
2022/03/14 10:00:53;;;;;;;4.87;4.67;;;10.80;35.20;;;;;;6273538;22;20769;-78
2022/03/14 10:03:20;;;;;;;5.37;4.87;;;10.80;34.20;;;;;;6273625;22;20845;-78
2022/03/14 10:05:46;;;;;;;4.47;4.23;;;10.90;33.70;;;;;;6273928;22;20384;-78
2022/03/14 10:08:12;;;;;;;6.33;5.07;;;11.00;33.70;;;;;;6273957;22;20849;-78
2022/03/14 10:10:39;;;;;;;5.57;5.20;;;11.00;32.80;;;;;;6273382;22;20871;-78
2022/03/14 10:13:06;;;;;;;5.47;5.27;;;11.10;33.70;;;;;;6274023;22;20413;-78
2022/03/14 10:15:37;;;;;;;4.97;4.77;;;11.10;33.70;;;;;;6273359;22;20393;-78
2022/03/14 10:18:18;;;;;;;4.83;4.50;;;11.30;32.30;;;;;;6273126;22;20429;-78
2022/03/14 10:21:07;;;;;;;5.10;4.90;;;11.40;32.00;;;;;;6273340;22;20471;-78
2022/03/14 10:23:41;;;;;;;4.90;4.43;;;11.50;32.40;;;;;;6272940;22;20478;-78
2022/03/14 10:26:11;;;;;;;5.83;5.43;;;11.60;32.20;;;;;;6273533;22;20460;-78
2022/03/14 10:29:01;;;;;;;5.27;5.03;;;11.80;31.20;;;;;;6247877;22;20461;-84
2022/03/14 10:31:36;;;;;;;5.07;4.77;;;12.00;29.70;;;;;;6243314;23;20386;-84
2022/03/14 10:34:09;;;;;;;5.17;4.90;;;12.00;29.90;;;;;;6242627;23;20385;-83
2022/03/14 10:36:57;;;;;;;4.40;4.20;;;12.00;29.60;;;;;;6241958;23;20838;-84
2022/03/14 10:39:32;;;;;;;9.73;4.37;;;11.90;29.10;;;;;;6243181;23;20375;-84
2022/03/14 10:42:07;;;;;;;4.77;4.47;;;11.80;30.30;;;;;;6242294;23;20392;-84
2022/03/14 10:44:34;;;;;;;5.10;4.90;;;11.80;30.80;;;;;;6268198;22;20386;-84
2022/03/14 10:47:13;;;;;;;4.90;4.70;;;11.80;29.20;;;;;;6243597;23;20392;-84
2022/03/14 10:49:40;;;;;;;4.80;4.70;;;11.80;30.20;;;;;;6242789;23;20394;-84
2022/03/14 10:52:11;;;;;;;4.60;4.40;;;11.90;28.30;;;;;;6241244;23;20388;-84
2022/03/14 10:54:38;;;;;;;4.97;4.67;;;11.90;29.40;;;;;;6242970;23;20478;-84
2022/03/14 10:57:10;;;;;;;4.90;4.70;;;11.90;29.90;;;;;;6242446;23;20386;-84
2022/03/14 10:59:44;;;;;;;4.93;4.63;;;12.00;29.50;;;;;;6242554;23;20542;-84
2022/03/14 11:02:19;;;;;;;4.47;4.20;;;12.00;29.50;;;;;;6242937;23;20423;-84
2022/03/14 11:04:57;;;;;;;5.27;5.00;;;12.00;28.60;;;;;;6242546;23;20904;-84
2022/03/14 11:07:31;;;;;;;4.80;4.50;;;12.00;28.20;;;;;;6268813;22;20386;-84
2022/03/14 11:09:58;;;;;;;4.97;4.77;;;11.90;29.50;;;;;;6242309;23;20413;-84
2022/03/14 11:12:27;;;;;;;4.90;4.63;;;12.00;28.60;;;;;;6243001;23;20459;-85
2022/03/14 11:14:57;;;;;;;4.63;4.43;;;12.10;28.40;;;;;;6243760;22;20378;-84
2022/03/14 11:17:25;;;;;;;4.53;4.23;;;12.30;28.50;;;;;;6242463;23;20460;-84
2022/03/14 11:19:59;;;;;;;4.83;4.43;;;12.50;27.30;;;;;;6242277;23;20825;-87
2022/03/14 11:22:28;;;;;;;5.30;5.00;;;12.60;26.70;;;;;;6244605;22;20706;-84
2022/03/14 11:24:56;;;;;;;4.63;4.53;;;12.70;27.20;;;;;;6241975;23;20378;-83
2022/03/14 11:27:27;;;;;;;4.97;4.77;;;12.90;26.90;;;;;;6242420;23;20444;-83
2022/03/14 11:30:00;;;;;;;4.57;4.47;;;13.00;26.70;;;;;;6243615;22;20366;-83
2022/03/14 11:32:26;;;;;;;4.07;3.90;;;13.10;27.20;;;;;;6242154;23;20387;-83
2022/03/14 11:34:51;;;;;;;4.83;4.60;;;13.00;27.60;;;;;;6241618;23;20828;-83
2022/03/14 11:37:18;;;;;;;4.90;4.70;;;13.00;25.80;;;;;;6242226;23;20584;-84
2022/03/14 11:39:45;;;;;;;5.00;4.60;;;12.90;25.80;;;;;;6242772;22;20175;-83
2022/03/14 11:42:12;;;;;;;8.77;5.40;;;12.90;27.30;;;;;;6242605;23;20387;-83
2022/03/14 11:44:39;;;;;;;5.30;5.00;;;13.00;27.50;;;;;;6241499;23;20449;-84
2022/03/14 11:47:08;;;;;;;5.13;4.90;;;13.10;30.20;;;;;;6242173;23;20469;-84
2022/03/14 11:49:35;;;;;;;5.30;4.50;;;13.20;24.80;;;;;;6241920;23;20432;-84
2022/03/14 11:52:25;;;;;;;7.47;5.87;;;13.30;25.40;;;;;;6242223;23;20389;-84
2022/03/14 11:55:01;;;;;;;4.40;4.10;;;13.30;28.30;;;;;;6266541;22;20397;-84
2022/03/14 11:57:39;;;;;;;4.50;4.30;;;13.40;25.70;;;;;;6242687;23;20386;-84
2022/03/14 12:00:32;;;;;;;4.30;4.10;;;13.30;26.70;;;;;;6242037;23;20945;-83
2022/03/14 12:03:34;;;;;;;4.40;4.20;;;13.40;27.10;;;;;;6267482;22;20390;-83
2022/03/14 12:06:00;;;;;;;4.43;4.30;;;13.40;25.80;;;;;;6242248;23;20393;-83
2022/03/14 12:08:32;;;;;;;4.37;4.07;;;13.40;25.30;;;;;;6242474;23;20378;-83
2022/03/14 12:11:27;;;;;;;5.10;4.37;;;13.40;25.50;;;;;;6267775;22;20205;-84
2022/03/14 12:13:53;;;;;;;4.10;3.90;;;13.20;25.20;;;;;;6227828;23;20443;-82
2022/03/14 12:16:37;;;;;;;5.10;4.80;;;13.30;25.50;;;;;;6242216;23;20472;-83
2022/03/14 12:19:51;;;;;;;4.57;4.33;;;13.30;25.50;;;;;;6242637;23;20514;-84
2022/03/14 12:22:29;;;;;;;4.03;3.93;;;13.30;26.60;;;;;;6216576;23;20389;-83
2022/03/14 12:24:57;;;;;;;4.80;4.50;;;13.40;25.90;;;;;;6265990;22;20447;-84
2022/03/14 12:27:33;;;;;;;4.40;4.20;;;13.60;25.20;;;;;;6243483;22;20390;-84
2022/03/14 12:30:00;;;;;;;9.57;4.80;;;13.70;24.50;;;;;;6267195;22;20436;-84
2022/03/14 12:32:26;;;;;;;4.90;4.70;;;13.60;24.40;;;;;;6241554;23;20843;-84
2022/03/14 12:35:04;;;;;;;4.63;4.43;;;13.60;25.00;;;;;;6266745;22;20374;-84
2022/03/14 12:37:42;;;;;;;5.20;4.90;;;13.60;25.00;;;;;;6267812;22;20154;-84
2022/03/14 12:40:23;;;;;;;4.50;4.30;;;13.60;25.60;;;;;;6267047;22;20422;-85
2022/03/14 12:43:00;;;;;;;3.87;3.67;;;13.70;26.70;;;;;;6267278;22;20818;-84
2022/03/14 12:45:30;;;;;;;4.37;4.27;;;13.70;25.20;;;;;;6267749;22;20469;-84
2022/03/14 12:47:58;;;;;;;4.90;4.60;;;13.70;23.50;;;;;;6241390;23;20388;-83
2022/03/14 12:50:42;;;;;;;4.23;4.00;;;13.60;24.20;;;;;;6242247;23;20703;-83
2022/03/14 12:53:09;;;;;;;4.07;3.88;;;13.60;23.40;;;;;;6267719;22;20376;-82